Time;durP1;ratioP1;P1;durP2;ratioP2;P2;SDS_P1;SDS_P2;PMS_P1;PMS_P2;Temp;Humidity;BMP_temperature;BMP_pressure;BME280_temperature;BME280_humidity;BME280_pressure;Samples;Min_cycle;Max_cycle;Signal;HPM_P1;HPM_P2
2022/08/19 00:01:41;;;;;;;8.90;8.10;;;23.40;99.90;;;;;;5072962;28;20200;-58
2022/08/19 00:04:11;;;;;;;9.23;8.43;;;23.40;99.90;;;;;;5073137;28;20209;-59
2022/08/19 00:06:39;;;;;;;9.63;8.68;;;23.50;99.90;;;;;;5072607;28;20228;-58
2022/08/19 00:09:09;;;;;;;9.63;8.73;;;23.50;99.90;;;;;;5073429;28;20215;-59
2022/08/19 00:11:37;;;;;;;9.07;8.27;;;23.50;99.90;;;;;;5072959;28;20205;-59
2022/08/19 00:14:05;;;;;;;9.32;8.52;;;23.50;99.90;;;;;;5072788;28;20212;-59
2022/08/19 00:16:33;;;;;;;8.90;8.00;;;23.50;99.90;;;;;;5072575;28;20232;-59
2022/08/19 00:18:59;;;;;;;9.40;8.60;;;23.50;99.90;;;;;;5072842;28;20213;-59
2022/08/19 00:21:26;;;;;;;9.25;8.35;;;23.50;99.90;;;;;;5072960;28;20205;-59
2022/08/19 00:23:54;;;;;;;9.77;8.77;;;23.40;99.90;;;;;;5072992;28;20242;-59
2022/08/19 00:26:22;;;;;;;9.85;8.88;;;23.40;99.90;;;;;;5074464;28;20225;-61
2022/08/19 00:28:49;;;;;;;9.88;8.88;;;23.30;99.90;;;;;;5072559;28;20209;-59
2022/08/19 00:31:16;;;;;;;11.38;8.68;;;23.30;99.90;;;;;;5071865;28;20201;-58
2022/08/19 00:33:43;;;;;;;12.13;8.57;;;23.30;99.90;;;;;;5072518;28;20201;-58
2022/08/19 00:36:11;;;;;;;9.48;8.57;;;23.30;99.90;;;;;;5072133;28;20319;-59
2022/08/19 00:38:41;;;;;;;10.82;8.63;;;23.30;99.90;;;;;;5072423;28;20239;-59
2022/08/19 00:41:08;;;;;;;10.35;9.23;;;23.30;99.90;;;;;;5072275;28;20300;-59
2022/08/19 00:43:37;;;;;;;10.98;9.98;;;23.20;99.90;;;;;;5072474;28;20213;-59
2022/08/19 00:46:04;;;;;;;10.43;9.32;;;23.30;99.90;;;;;;5072099;28;20220;-59
2022/08/19 00:48:32;;;;;;;10.00;8.77;;;23.20;99.90;;;;;;5072265;28;20307;-59
2022/08/19 00:50:59;;;;;;;10.20;9.27;;;23.20;99.90;;;;;;5072341;28;20299;-58
2022/08/19 00:53:29;;;;;;;10.43;9.32;;;23.20;99.90;;;;;;5072218;28;20205;-58
2022/08/19 00:55:59;;;;;;;10.60;9.52;;;23.10;99.90;;;;;;5071747;28;20659;-59
2022/08/19 00:58:29;;;;;;;10.35;9.35;;;23.20;99.90;;;;;;5072665;28;20250;-62
2022/08/19 01:00:57;;;;;;;10.32;9.27;;;23.20;99.90;;;;;;5073051;28;20623;-59
2022/08/19 01:03:24;;;;;;;10.90;9.90;;;23.20;99.90;;;;;;5072155;28;20205;-58
2022/08/19 01:05:54;;;;;;;13.38;9.52;;;23.20;99.90;;;;;;5071516;28;20236;-58
2022/08/19 01:08:22;;;;;;;10.88;9.77;;;23.20;99.90;;;;;;5072338;28;20217;-58
2022/08/19 01:10:52;;;;;;;10.88;9.85;;;23.20;99.90;;;;;;5072049;28;20212;-59
2022/08/19 01:13:22;;;;;;;11.02;9.80;;;23.20;99.90;;;;;;5072162;28;20208;-59
2022/08/19 01:15:57;;;;;;;13.10;9.50;;;23.20;99.90;;;;;;5071852;28;20267;-60
2022/08/19 01:18:27;;;;;;;9.75;8.85;;;23.20;99.90;;;;;;5072019;28;20200;-58
2022/08/19 01:20:57;;;;;;;10.52;9.45;;;23.20;99.90;;;;;;5072385;28;20193;-58
2022/08/19 01:23:42;;;;;;;10.40;9.50;;;23.20;99.90;;;;;;5072083;28;20681;-58
2022/08/19 01:26:10;;;;;;;11.05;9.93;;;23.20;99.90;;;;;;5071873;28;20255;-59
2022/08/19 01:28:38;;;;;;;10.95;9.55;;;23.10;99.90;;;;;;5072058;28;20204;-59
2022/08/19 01:31:05;;;;;;;10.98;9.95;;;23.10;99.90;;;;;;5071844;28;20204;-58
2022/08/19 01:33:32;;;;;;;11.13;10.02;;;23.10;99.90;;;;;;5072320;28;20580;-58
2022/08/19 01:36:06;;;;;;;10.57;9.57;;;23.10;99.90;;;;;;5071931;28;20270;-59
2022/08/19 01:38:37;;;;;;;11.27;10.13;;;23.10;99.90;;;;;;5072034;28;20208;-58
2022/08/19 01:41:04;;;;;;;11.95;10.70;;;23.10;99.90;;;;;;5071844;28;20216;-59
2022/08/19 01:43:31;;;;;;;11.45;10.18;;;23.10;99.90;;;;;;5074438;28;20641;-59
2022/08/19 01:45:57;;;;;;;11.65;10.45;;;23.10;99.90;;;;;;5076010;28;20233;-61
2022/08/19 01:48:24;;;;;;;12.20;10.40;;;23.10;99.90;;;;;;5076120;28;20208;-59
2022/08/19 01:50:51;;;;;;;11.68;10.52;;;23.00;99.90;;;;;;5076333;28;20205;-59
2022/08/19 01:53:17;;;;;;;11.43;10.32;;;23.00;99.90;;;;;;5075786;28;20262;-59
2022/08/19 01:55:47;;;;;;;11.68;10.57;;;23.00;99.90;;;;;;5075327;28;20270;-57
2022/08/19 01:58:18;;;;;;;12.13;10.90;;;23.00;99.90;;;;;;5075587;28;20771;-59
2022/08/19 02:00:46;;;;;;;11.70;10.60;;;23.00;99.90;;;;;;5075730;28;20642;-59
2022/08/19 02:03:13;;;;;;;11.57;10.48;;;23.00;99.90;;;;;;5076192;28;20291;-59
2022/08/19 02:05:42;;;;;;;11.80;10.60;;;22.90;99.90;;;;;;5075895;28;20255;-59
2022/08/19 02:08:09;;;;;;;12.00;10.80;;;22.90;99.90;;;;;;5076046;28;20201;-58
2022/08/19 02:10:40;;;;;;;11.88;10.25;;;22.90;99.90;;;;;;5075895;28;20205;-59
2022/08/19 02:13:09;;;;;;;13.20;11.77;;;22.80;99.90;;;;;;5075678;28;20238;-59
2022/08/19 02:15:36;;;;;;;12.90;11.52;;;22.80;99.90;;;;;;5075232;28;20228;-59
2022/08/19 02:18:02;;;;;;;12.73;11.20;;;22.80;99.90;;;;;;5075252;28;20236;-59
2022/08/19 02:20:29;;;;;;;13.10;10.90;;;22.80;99.90;;;;;;5075565;28;20841;-59
2022/08/19 02:22:56;;;;;;;14.05;10.75;;;22.80;99.90;;;;;;5075243;28;20208;-60
2022/08/19 02:25:22;;;;;;;13.27;11.75;;;22.70;99.90;;;;;;5075012;28;20724;-59
2022/08/19 02:27:49;;;;;;;12.82;11.57;;;22.80;99.90;;;;;;5074940;28;20216;-59
2022/08/19 02:30:18;;;;;;;13.13;11.73;;;22.70;99.90;;;;;;5075331;28;20205;-59
2022/08/19 02:32:45;;;;;;;13.15;11.68;;;22.70;99.90;;;;;;5074902;28;20212;-59
2022/08/19 02:35:12;;;;;;;11.98;10.63;;;22.70;99.90;;;;;;5074778;28;20233;-59
2022/08/19 02:40:24;;;;;;;11.93;10.82;;;22.70;99.90;;;;;;5075074;28;20208;-59
2022/08/19 02:42:50;;;;;;;12.07;10.95;;;22.70;99.90;;;;;;5074877;28;20209;-59
2022/08/19 02:45:18;;;;;;;13.00;11.40;;;22.70;99.90;;;;;;5074411;28;20712;-59
2022/08/19 02:47:45;;;;;;;12.70;11.38;;;22.70;99.90;;;;;;5074404;28;20212;-59
2022/08/19 02:50:12;;;;;;;13.40;11.60;;;22.70;99.90;;;;;;5074480;28;20205;-59
2022/08/19 02:52:39;;;;;;;13.10;11.68;;;22.70;99.90;;;;;;5074457;28;20679;-59
2022/08/19 02:55:07;;;;;;;12.85;11.55;;;22.60;99.90;;;;;;5073325;28;20716;-58
2022/08/19 02:57:34;;;;;;;17.10;11.73;;;22.70;99.90;;;;;;5074228;28;20227;-59
2022/08/19 03:00:01;;;;;;;16.95;14.68;;;22.60;99.90;;;;;;5074564;28;20303;-59
2022/08/19 03:02:30;;;;;;;15.60;12.32;;;22.60;99.90;;;;;;5074363;28;20239;-59
2022/08/19 03:04:57;;;;;;;13.23;11.93;;;22.60;99.90;;;;;;5073894;28;20556;-59
2022/08/19 03:07:23;;;;;;;13.07;11.55;;;22.60;99.90;;;;;;5074322;28;20254;-59
2022/08/19 03:09:50;;;;;;;13.18;11.88;;;22.50;99.90;;;;;;5074259;28;20722;-58
2022/08/19 03:12:17;;;;;;;13.52;11.68;;;22.50;99.90;;;;;;5074295;28;20216;-59
2022/08/19 03:14:43;;;;;;;13.02;11.73;;;22.50;99.90;;;;;;5074242;28;20204;-59
2022/08/19 03:17:10;;;;;;;16.73;13.15;;;22.50;99.90;;;;;;5073718;28;20216;-58
2022/08/19 03:19:38;;;;;;;16.38;13.13;;;22.50;99.90;;;;;;5074635;28;20258;-59
2022/08/19 03:22:05;;;;;;;14.40;12.90;;;22.50;99.90;;;;;;5074249;28;20259;-59
2022/08/19 03:24:32;;;;;;;14.40;12.55;;;22.40;99.90;;;;;;5074450;28;20213;-58
2022/08/19 03:26:59;;;;;;;14.35;11.77;;;22.40;99.90;;;;;;5073988;28;20225;-57
2022/08/19 03:29:27;;;;;;;17.13;13.13;;;22.40;99.90;;;;;;5074090;28;20209;-57
2022/08/19 03:31:54;;;;;;;16.05;12.43;;;22.30;99.90;;;;;;5073845;28;20204;-58
2022/08/19 03:34:26;;;;;;;16.55;14.57;;;22.30;99.90;;;;;;5074156;28;20227;-58
2022/08/19 03:36:55;;;;;;;15.43;13.80;;;22.30;99.90;;;;;;5073499;28;20225;-58
2022/08/19 03:39:22;;;;;;;14.57;12.82;;;22.20;99.90;;;;;;5073692;28;20278;-58
2022/08/19 03:41:50;;;;;;;17.80;13.38;;;22.20;99.90;;;;;;5073569;28;20201;-60
2022/08/19 03:44:19;;;;;;;14.60;13.00;;;22.20;99.90;;;;;;5073507;28;20205;-58
2022/08/19 03:46:46;;;;;;;14.57;12.98;;;22.20;99.90;;;;;;5073249;28;20655;-58
2022/08/19 03:49:13;;;;;;;15.13;13.57;;;22.10;99.90;;;;;;5073525;28;20212;-57
2022/08/19 03:51:40;;;;;;;15.00;13.40;;;22.10;99.90;;;;;;5073504;28;20213;-58
2022/08/19 03:54:10;;;;;;;16.77;13.95;;;22.10;99.90;;;;;;5073487;28;20296;-58
2022/08/19 03:56:38;;;;;;;16.30;13.77;;;22.10;99.90;;;;;;5073163;28;20286;-58
2022/08/19 03:59:07;;;;;;;17.05;13.50;;;22.10;99.90;;;;;;5073165;28;20271;-58
2022/08/19 04:01:35;;;;;;;17.88;13.80;;;22.00;99.90;;;;;;5073525;28;20251;-59
2022/08/19 04:04:03;;;;;;;14.55;12.75;;;22.00;99.90;;;;;;5073248;28;20601;-58
2022/08/19 04:06:33;;;;;;;15.98;13.18;;;22.00;99.90;;;;;;5080252;22;20228;-57
2022/08/19 04:09:02;;;;;;;16.08;13.65;;;22.00;99.90;;;;;;5047851;28;20197;-57
2022/08/19 04:11:32;;;;;;;20.08;14.30;;;22.00;99.90;;;;;;5053089;28;20206;-57
2022/08/19 04:14:00;;;;;;;17.60;13.95;;;22.10;99.90;;;;;;5053456;28;20209;-57
2022/08/19 04:16:29;;;;;;;16.73;13.65;;;22.00;99.90;;;;;;5053058;28;20228;-57
2022/08/19 04:18:56;;;;;;;16.25;13.30;;;22.00;99.90;;;;;;5052998;28;20255;-58
2022/08/19 04:21:25;;;;;;;16.98;14.98;;;22.10;99.90;;;;;;5052926;28;20206;-57
2022/08/19 04:23:52;;;;;;;17.75;14.23;;;22.10;99.90;;;;;;5053110;28;20221;-58
2022/08/19 04:26:22;;;;;;;14.95;13.40;;;22.10;99.90;;;;;;5052745;28;20588;-57
2022/08/19 04:28:52;;;;;;;16.98;14.20;;;22.10;99.90;;;;;;5053023;28;20678;-57
2022/08/19 04:31:21;;;;;;;16.10;13.73;;;22.10;99.90;;;;;;5053156;28;20744;-57
2022/08/19 04:33:48;;;;;;;16.55;14.77;;;22.10;99.90;;;;;;5053094;28;20206;-57
2022/08/19 04:36:20;;;;;;;20.65;14.55;;;22.00;99.90;;;;;;5052580;28;20233;-58
2022/08/19 04:38:47;;;;;;;15.75;14.05;;;22.10;99.90;;;;;;5053187;28;20214;-57
2022/08/19 04:44:00;;;;;;;18.38;15.43;;;22.00;99.90;;;;;;5053267;28;20392;-56
2022/08/19 04:46:28;;;;;;;20.60;15.48;;;22.10;99.90;;;;;;5053138;28;20233;-57
2022/08/19 04:48:56;;;;;;;18.58;15.32;;;22.10;99.90;;;;;;5052878;28;20729;-57
2022/08/19 04:51:24;;;;;;;17.15;15.25;;;22.10;99.90;;;;;;5053721;28;20241;-57
2022/08/19 04:53:52;;;;;;;17.63;15.60;;;22.10;99.90;;;;;;5054250;28;20213;-56
2022/08/19 04:56:22;;;;;;;20.95;16.20;;;22.10;99.90;;;;;;5054145;28;20237;-57
2022/08/19 04:58:50;;;;;;;20.48;16.27;;;22.10;99.90;;;;;;5054160;28;20225;-57
2022/08/19 05:01:22;;;;;;;17.85;14.93;;;22.10;99.90;;;;;;5054172;28;20708;-57
2022/08/19 05:03:49;;;;;;;18.85;15.55;;;22.10;99.90;;;;;;5054873;28;20239;-58
2022/08/19 05:06:19;;;;;;;18.75;16.25;;;22.10;99.90;;;;;;5053609;28;20327;-57
2022/08/19 05:08:46;;;;;;;18.88;15.10;;;22.10;99.90;;;;;;5053633;28;20735;-57
2022/08/19 05:11:17;;;;;;;20.73;15.93;;;22.10;99.90;;;;;;5053058;28;20206;-56
2022/08/19 05:13:45;;;;;;;19.20;16.05;;;22.10;99.90;;;;;;5053250;28;20244;-57
2022/08/19 05:16:14;;;;;;;17.30;15.32;;;22.10;99.90;;;;;;5053095;28;20253;-57
2022/08/19 05:24:14;;;;;;;20.27;16.00;;;22.20;99.90;;;;;;5053012;28;20200;-56
2022/08/19 05:26:46;;;;;;;21.65;16.60;;;22.30;99.90;;;;;;5052674;28;20605;-56
2022/08/19 05:29:13;;;;;;;22.05;16.20;;;22.30;99.90;;;;;;5053036;28;20255;-57
2022/08/19 05:31:41;;;;;;;18.58;15.13;;;22.30;99.90;;;;;;5052869;28;20582;-57
2022/08/19 05:34:09;;;;;;;19.08;15.63;;;22.30;99.90;;;;;;5052299;28;20621;-56
2022/08/19 05:36:39;;;;;;;17.10;15.30;;;22.30;99.90;;;;;;5052061;28;20603;-56
2022/08/19 05:39:06;;;;;;;17.27;15.48;;;22.30;99.90;;;;;;5052237;28;20237;-57
2022/08/19 05:41:34;;;;;;;16.80;15.02;;;22.30;99.90;;;;;;5052265;28;20299;-57
2022/08/19 05:44:06;;;;;;;19.80;16.27;;;22.40;99.90;;;;;;5052601;28;20228;-56
2022/08/19 05:46:33;;;;;;;18.70;16.63;;;22.40;99.90;;;;;;5052121;28;20256;-57
2022/08/19 05:49:00;;;;;;;22.88;16.33;;;22.30;99.90;;;;;;5052242;28;20284;-56
2022/08/19 05:51:28;;;;;;;19.25;17.17;;;22.30;99.90;;;;;;5051943;28;20209;-57
2022/08/19 05:53:55;;;;;;;24.77;16.10;;;22.40;99.90;;;;;;5052112;28;20206;-57
2022/08/19 05:56:22;;;;;;;21.92;16.35;;;22.40;99.90;;;;;;5051575;28;20233;-57
2022/08/19 05:58:48;;;;;;;21.42;17.33;;;22.40;99.90;;;;;;5051975;28;20229;-57
2022/08/19 06:01:19;;;;;;;35.08;17.50;;;22.40;99.90;;;;;;5052121;28;20669;-56
2022/08/19 06:03:47;;;;;;;34.75;17.80;;;22.50;99.90;;;;;;5052338;28;20205;-56
2022/08/19 06:06:17;;;;;;;24.42;16.13;;;22.60;99.90;;;;;;5051514;28;20770;-57
2022/08/19 06:08:50;;;;;;;24.55;17.65;;;22.60;99.90;;;;;;5051911;28;20206;-56
2022/08/19 06:11:20;;;;;;;19.23;16.15;;;22.70;99.90;;;;;;5052040;28;20213;-57
2022/08/19 06:13:50;;;;;;;20.00;15.88;;;22.70;99.90;;;;;;5051802;28;20205;-57
2022/08/19 06:16:20;;;;;;;19.90;16.60;;;22.70;99.90;;;;;;5051574;28;20280;-56
2022/08/19 06:18:47;;;;;;;19.27;16.65;;;22.60;99.90;;;;;;5051595;28;20244;-57
2022/08/19 06:21:14;;;;;;;18.95;16.00;;;22.50;99.90;;;;;;5051703;28;20221;-57
2022/08/19 06:23:40;;;;;;;20.77;16.67;;;22.60;99.90;;;;;;5051623;28;20305;-56
2022/08/19 06:26:13;;;;;;;19.98;16.15;;;22.70;99.90;;;;;;5051405;28;20701;-57
2022/08/19 06:28:42;;;;;;;18.33;16.35;;;22.80;99.90;;;;;;5052769;28;20205;-57
2022/08/19 06:31:09;;;;;;;20.25;15.80;;;22.90;99.90;;;;;;5055169;28;20233;-56
2022/08/19 06:33:37;;;;;;;17.13;15.43;;;22.90;99.90;;;;;;5055241;28;20235;-56
2022/08/19 06:36:04;;;;;;;18.45;15.85;;;23.00;99.90;;;;;;5055200;28;20257;-57
2022/08/19 06:38:33;;;;;;;18.98;16.00;;;22.90;99.90;;;;;;5055181;28;20225;-56
2022/08/19 06:41:02;;;;;;;20.23;16.27;;;22.90;99.90;;;;;;5054969;28;20209;-57
2022/08/19 06:43:31;;;;;;;19.50;15.73;;;22.90;99.90;;;;;;5055066;28;20212;-56
2022/08/19 06:45:58;;;;;;;18.67;16.25;;;22.90;99.90;;;;;;5054735;28;20236;-57
2022/08/19 06:48:25;;;;;;;17.77;15.80;;;23.00;99.90;;;;;;5055352;28;20205;-56
2022/08/19 06:50:52;;;;;;;18.65;15.70;;;23.10;99.90;;;;;;5055363;28;20206;-57
2022/08/19 06:53:19;;;;;;;19.13;15.95;;;23.30;99.90;;;;;;5055106;28;20221;-57
2022/08/19 06:55:46;;;;;;;23.95;16.55;;;23.50;99.90;;;;;;5054863;28;20233;-56
2022/08/19 06:58:13;;;;;;;18.45;16.58;;;23.60;99.90;;;;;;5054378;28;20218;-56
2022/08/19 07:00:42;;;;;;;17.70;15.82;;;23.80;99.90;;;;;;5054885;28;20201;-56
2022/08/19 07:03:08;;;;;;;18.40;16.50;;;23.90;99.90;;;;;;5054722;28;20618;-57
2022/08/19 07:05:40;;;;;;;18.38;16.17;;;23.90;99.90;;;;;;5054651;28;20237;-56
2022/08/19 07:08:07;;;;;;;17.33;15.52;;;24.10;99.90;;;;;;5055442;28;20235;-57
2022/08/19 07:10:34;;;;;;;18.17;15.80;;;24.30;99.90;;;;;;5054856;28;20245;-57
2022/08/19 07:13:01;;;;;;;19.02;16.70;;;24.40;99.90;;;;;;5055349;28;20217;-56
2022/08/19 07:15:28;;;;;;;18.73;16.70;;;24.50;99.90;;;;;;5054867;28;20225;-58
2022/08/19 07:17:56;;;;;;;18.13;16.25;;;24.50;99.90;;;;;;5057135;28;20209;-61
2022/08/19 07:20:23;;;;;;;20.23;16.23;;;24.60;99.90;;;;;;5055445;28;20194;-57
2022/08/19 07:22:50;;;;;;;19.25;17.10;;;24.60;99.90;;;;;;5055067;28;20300;-57
2022/08/19 07:25:18;;;;;;;19.02;16.98;;;24.70;99.90;;;;;;5055312;28;20732;-57
2022/08/19 07:27:45;;;;;;;18.58;16.67;;;24.80;99.90;;;;;;5057193;28;20577;-59
2022/08/19 07:30:13;;;;;;;18.67;16.65;;;24.80;99.90;;;;;;5055310;28;20674;-58
2022/08/19 07:32:40;;;;;;;20.83;16.23;;;24.80;99.90;;;;;;5055443;28;20287;-58
2022/08/19 07:35:09;;;;;;;17.88;15.75;;;24.60;99.90;;;;;;5056234;28;20202;-58
2022/08/19 07:37:36;;;;;;;17.75;15.90;;;24.70;99.90;;;;;;5057312;28;20209;-58
2022/08/19 07:40:05;;;;;;;17.05;15.25;;;24.60;99.90;;;;;;5056540;28;20320;-65
2022/08/19 07:42:32;;;;;;;19.70;15.15;;;24.50;99.90;;;;;;5057573;28;20210;-64
2022/08/19 07:44:59;;;;;;;17.98;16.08;;;24.40;99.90;;;;;;5057469;28;20739;-65
2022/08/19 07:47:28;;;;;;;20.10;15.20;;;24.30;99.90;;;;;;5035366;28;20674;-58
2022/08/19 07:49:54;;;;;;;17.15;15.30;;;24.20;99.90;;;;;;5045198;28;20197;-58
2022/08/19 07:52:23;;;;;;;16.92;15.13;;;23.90;99.90;;;;;;5055762;28;20683;-57
2022/08/19 07:54:50;;;;;;;21.90;17.42;;;23.70;99.90;;;;;;5056074;28;20205;-57
2022/08/19 07:57:18;;;;;;;25.08;15.98;;;23.60;99.90;;;;;;5056077;28;20241;-57
2022/08/19 07:59:45;;;;;;;19.45;15.90;;;23.70;99.90;;;;;;5055781;28;20225;-65
2022/08/19 08:02:12;;;;;;;16.85;14.88;;;23.60;99.90;;;;;;5056381;28;20206;-57
2022/08/19 08:10:09;;;;;;;22.63;15.18;;;23.50;99.90;;;;;;5055616;28;20196;-58
2022/08/19 08:12:41;;;;;;;17.42;15.25;;;23.60;99.90;;;;;;5055126;28;20242;-57
2022/08/19 08:15:11;;;;;;;16.15;14.55;;;23.70;99.90;;;;;;5055201;28;20210;-61
2022/08/19 08:17:39;;;;;;;18.27;15.50;;;23.70;99.90;;;;;;5054226;28;20240;-58
2022/08/19 08:20:07;;;;;;;19.02;15.02;;;23.60;99.90;;;;;;5053922;28;20262;-58
2022/08/19 08:25:23;;;;;;;16.02;14.32;;;23.50;99.90;;;;;;5053356;28;20246;-58
2022/08/19 08:27:51;;;;;;;17.27;14.48;;;23.40;99.90;;;;;;5053360;28;20233;-57
2022/08/19 08:30:22;;;;;;;16.85;14.75;;;23.20;99.90;;;;;;5053620;28;20259;-57
2022/08/19 08:32:49;;;;;;;15.63;13.80;;;23.10;99.90;;;;;;5053791;28;20266;-58
2022/08/19 08:35:18;;;;;;;16.95;13.35;;;23.00;99.90;;;;;;5053034;28;20209;-58
2022/08/19 08:37:49;;;;;;;19.23;15.05;;;22.90;99.90;;;;;;5053310;28;20209;-58
2022/08/19 08:40:22;;;;;;;16.00;14.40;;;22.80;99.90;;;;;;5052959;28;20231;-58
2022/08/19 08:42:58;;;;;;;17.25;15.52;;;22.80;99.90;;;;;;5052315;28;20206;-58
2022/08/19 08:45:25;;;;;;;16.80;13.98;;;22.90;99.90;;;;;;5052609;28;20278;-58
2022/08/19 08:47:54;;;;;;;16.30;14.60;;;22.90;99.90;;;;;;5051607;28;20259;-58
2022/08/19 08:50:30;;;;;;;20.38;14.43;;;23.10;99.90;;;;;;5052168;28;20202;-58
2022/08/19 08:52:59;;;;;;;16.33;14.05;;;23.20;99.90;;;;;;5051313;28;20208;-58
2022/08/19 08:55:28;;;;;;;18.13;14.85;;;23.20;99.90;;;;;;5052153;28;20229;-58
2022/08/19 08:58:01;;;;;;;15.27;13.68;;;23.20;99.90;;;;;;5051527;28;20284;-57
2022/08/19 09:00:31;;;;;;;17.85;14.70;;;23.20;99.90;;;;;;5051799;28;20217;-57
2022/08/19 09:02:59;;;;;;;16.42;14.70;;;23.20;99.90;;;;;;5051442;28;20213;-57
2022/08/19 09:05:33;;;;;;;17.95;16.05;;;23.30;99.90;;;;;;5051283;28;20233;-58
2022/08/19 09:08:06;;;;;;;15.82;14.13;;;23.30;99.90;;;;;;5051452;28;20209;-57
2022/08/19 09:10:38;;;;;;;16.77;13.88;;;23.40;99.90;;;;;;5051339;28;20205;-57
2022/08/19 09:13:12;;;;;;;18.50;15.25;;;23.50;99.90;;;;;;5051157;28;20212;-57
2022/08/19 09:15:44;;;;;;;17.15;14.70;;;23.60;99.90;;;;;;5051264;28;20229;-57
2022/08/19 09:18:11;;;;;;;16.10;14.20;;;23.60;99.90;;;;;;5050944;28;20281;-57
2022/08/19 09:20:38;;;;;;;15.35;13.77;;;23.60;99.90;;;;;;5051095;28;20237;-57
2022/08/19 09:23:06;;;;;;;18.55;14.40;;;23.70;99.90;;;;;;5051326;28;20584;-57
2022/08/19 09:25:34;;;;;;;18.80;14.38;;;23.60;99.90;;;;;;5050958;28;20720;-57
2022/08/19 09:28:03;;;;;;;15.88;14.27;;;23.40;99.90;;;;;;5051696;28;20212;-58
2022/08/19 09:30:32;;;;;;;17.95;14.93;;;23.40;99.90;;;;;;5051061;28;20292;-58
2022/08/19 09:32:59;;;;;;;16.20;14.55;;;23.40;99.90;;;;;;5051207;28;20209;-58
2022/08/19 09:35:29;;;;;;;19.60;15.35;;;23.60;99.90;;;;;;5051359;28;20225;-58
2022/08/19 09:37:56;;;;;;;20.05;14.65;;;23.80;99.90;;;;;;5050932;28;20205;-59
2022/08/19 09:40:25;;;;;;;17.23;15.38;;;23.90;99.90;;;;;;5051212;28;20225;-58
2022/08/19 09:42:52;;;;;;;15.88;14.20;;;24.00;99.90;;;;;;5051219;28;20206;-59
2022/08/19 09:45:22;;;;;;;19.10;14.13;;;24.10;99.90;;;;;;5051471;28;20205;-58
2022/08/19 09:47:50;;;;;;;17.30;14.15;;;24.20;99.90;;;;;;5051351;28;20206;-58
2022/08/19 09:50:18;;;;;;;15.77;14.13;;;24.30;99.90;;;;;;5051017;28;20229;-58
2022/08/19 09:52:45;;;;;;;16.83;15.10;;;24.30;99.90;;;;;;5050706;28;20217;-58
2022/08/19 09:55:12;;;;;;;25.25;14.95;;;24.40;99.90;;;;;;5051434;28;20208;-58
2022/08/19 09:57:41;;;;;;;17.23;15.40;;;24.40;99.90;;;;;;5051551;28;20810;-60
2022/08/19 10:00:10;;;;;;;17.25;14.65;;;24.40;99.90;;;;;;5052229;28;20712;-60
2022/08/19 10:02:37;;;;;;;17.42;15.40;;;24.40;99.90;;;;;;5052016;28;20281;-62
2022/08/19 10:07:50;;;;;;;20.75;15.38;;;24.40;99.90;;;;;;5055985;28;20220;-61
2022/08/19 10:10:17;;;;;;;20.15;16.67;;;24.40;99.90;;;;;;5055430;28;20214;-61
2022/08/19 10:12:47;;;;;;;19.25;15.73;;;24.40;99.90;;;;;;5055298;28;20219;-61
2022/08/19 10:15:14;;;;;;;20.50;15.75;;;24.40;99.90;;;;;;5055461;28;20284;-61
2022/08/19 10:17:41;;;;;;;18.48;15.82;;;24.50;99.90;;;;;;5055239;28;20613;-62
2022/08/19 10:20:09;;;;;;;17.42;15.50;;;24.50;99.90;;;;;;5054913;28;20312;-59
2022/08/19 10:22:37;;;;;;;18.40;16.50;;;24.50;99.90;;;;;;5054667;28;20658;-59
2022/08/19 10:25:05;;;;;;;17.90;15.98;;;24.60;99.90;;;;;;5054492;28;20216;-59
2022/08/19 10:27:32;;;;;;;18.90;16.30;;;24.70;99.90;;;;;;5054800;28;20212;-58
2022/08/19 10:30:01;;;;;;;16.77;15.07;;;24.70;99.90;;;;;;5054647;28;20816;-61
2022/08/19 10:32:29;;;;;;;19.52;16.77;;;24.80;99.90;;;;;;5054634;28;20213;-60
2022/08/19 10:34:56;;;;;;;21.63;16.33;;;24.80;99.90;;;;;;5032054;28;20229;-58
2022/08/19 10:37:22;;;;;;;18.83;15.68;;;24.90;99.90;;;;;;5033824;28;20222;-59
2022/08/19 10:39:49;;;;;;;19.98;15.98;;;25.10;99.90;;;;;;5034190;28;20732;-58
2022/08/19 10:42:18;;;;;;;18.13;14.45;;;25.30;99.90;;;;;;5034643;28;20206;-60
2022/08/19 10:44:46;;;;;;;17.33;14.85;;;25.50;99.90;;;;;;5034051;28;20674;-61
2022/08/19 10:47:14;;;;;;;16.75;14.88;;;25.60;99.90;;;;;;5033910;28;20226;-59
2022/08/19 10:52:33;;;;;;;15.80;13.57;;;25.60;99.90;;;;;;5036502;28;20448;-60
2022/08/19 10:57:45;;;;;;;19.90;13.40;;;25.50;99.90;;;;;;5034953;28;20305;-61
2022/08/19 11:00:13;;;;;;;19.63;14.23;;;25.60;99.90;;;;;;5035563;28;20237;-61
2022/08/19 11:02:42;;;;;;;18.27;14.18;;;25.70;99.90;;;;;;5036331;28;20218;-61
2022/08/19 11:05:11;;;;;;;16.25;14.32;;;25.60;99.90;;;;;;5035528;28;20272;-61
2022/08/19 11:07:38;;;;;;;18.80;14.85;;;25.50;99.90;;;;;;5037543;28;20590;-63
2022/08/19 11:10:06;;;;;;;17.15;14.82;;;25.40;99.90;;;;;;5038702;28;20206;-63
2022/08/19 11:12:33;;;;;;;18.17;15.38;;;25.30;99.90;;;;;;5037643;28;20216;-62
2022/08/19 11:15:00;;;;;;;20.90;15.68;;;25.20;99.90;;;;;;5037044;28;20238;-61
2022/08/19 11:17:27;;;;;;;17.17;15.48;;;25.20;99.90;;;;;;5038014;28;20217;-62
2022/08/19 11:19:55;;;;;;;24.27;15.73;;;25.30;99.90;;;;;;5038502;28;20316;-62
2022/08/19 11:22:22;;;;;;;25.85;18.17;;;25.20;99.90;;;;;;5035622;28;20202;-63
2022/08/19 11:24:48;;;;;;;19.30;16.05;;;25.10;99.90;;;;;;5036747;28;20217;-63
2022/08/19 11:27:15;;;;;;;35.42;16.80;;;25.00;99.90;;;;;;5037002;28;20227;-62
2022/08/19 11:29:42;;;;;;;29.08;15.38;;;25.00;99.90;;;;;;5037132;28;20654;-62
2022/08/19 11:32:12;;;;;;;23.55;15.75;;;25.00;99.90;;;;;;5036930;28;20210;-62
2022/08/19 11:34:39;;;;;;;83.30;66.90;;;25.00;99.90;;;;;;5036325;28;20605;-62
2022/08/19 11:37:08;;;;;;;55.83;46.60;;;25.10;99.90;;;;;;5035151;28;20237;-59
2022/08/19 11:39:36;;;;;;;29.73;25.38;;;25.10;99.90;;;;;;5034440;28;20222;-59
2022/08/19 11:42:54;;;;;;;19.85;17.35;;;25.00;99.90;;;;;;5034925;28;20210;-60
2022/08/19 11:44:53;;;;;;;21.20;16.75;;;24.90;99.90;;;;;;5035458;28;20289;-59
2022/08/19 11:47:20;;;;;;;19.52;14.30;;;24.90;99.90;;;;;;5034939;28;20259;-59
2022/08/19 11:49:46;;;;;;;18.45;15.88;;;24.90;99.90;;;;;;5035966;28;20209;-57
2022/08/19 11:52:15;;;;;;;19.88;15.70;;;24.80;99.90;;;;;;5034523;28;20229;-59
2022/08/19 11:54:41;;;;;;;19.58;15.50;;;24.80;99.90;;;;;;5036507;28;20210;-59
2022/08/19 11:57:08;;;;;;;17.20;14.73;;;24.80;99.90;;;;;;5034591;28;20230;-57
2022/08/19 11:59:35;;;;;;;15.77;13.88;;;24.70;99.90;;;;;;5034471;28;20681;-58
2022/08/19 12:02:01;;;;;;;15.48;13.98;;;24.70;99.90;;;;;;5034641;28;20217;-58
2022/08/19 12:04:28;;;;;;;16.48;14.68;;;24.70;99.90;;;;;;5033536;28;20685;-57
2022/08/19 12:06:55;;;;;;;17.17;15.25;;;24.70;99.90;;;;;;5033638;28;20234;-58
2022/08/19 12:09:23;;;;;;;17.25;14.38;;;24.80;99.90;;;;;;5033611;28;20202;-59
2022/08/19 12:11:50;;;;;;;16.10;14.45;;;24.80;99.90;;;;;;5033814;28;20519;-60
2022/08/19 12:14:17;;;;;;;17.73;14.52;;;24.90;99.90;;;;;;5033579;28;20210;-59
2022/08/19 12:16:46;;;;;;;19.42;15.40;;;25.00;99.90;;;;;;5033218;28;20226;-59
2022/08/19 12:19:13;;;;;;;16.05;14.35;;;25.00;99.90;;;;;;5033962;28;20209;-65
2022/08/19 12:21:40;;;;;;;16.67;14.70;;;25.20;99.90;;;;;;5034272;28;20226;-60
2022/08/19 12:24:08;;;;;;;16.73;14.98;;;25.30;99.90;;;;;;5035260;28;20210;-58
2022/08/19 12:26:36;;;;;;;17.02;14.45;;;25.40;99.90;;;;;;5032993;28;20254;-59
2022/08/19 12:29:03;;;;;;;16.55;14.85;;;25.50;99.90;;;;;;5033497;28;20552;-58
2022/08/19 12:31:30;;;;;;;15.63;13.98;;;25.50;99.90;;;;;;5033884;28;20237;-58
2022/08/19 12:33:58;;;;;;;16.10;14.40;;;25.50;99.90;;;;;;5033798;28;20217;-58
2022/08/19 12:36:25;;;;;;;21.45;15.25;;;25.50;99.90;;;;;;5033497;28;20222;-58
2022/08/19 12:38:53;;;;;;;16.25;14.32;;;25.40;99.90;;;;;;5033320;28;20216;-60
2022/08/19 12:41:22;;;;;;;16.70;14.73;;;25.40;99.90;;;;;;5033957;28;20234;-59
2022/08/19 12:43:50;;;;;;;16.77;15.02;;;25.40;99.90;;;;;;5033671;28;20236;-59
2022/08/19 12:46:19;;;;;;;18.25;15.05;;;25.30;99.90;;;;;;5033346;28;20229;-59
2022/08/19 12:48:45;;;;;;;16.67;14.23;;;25.40;99.90;;;;;;5033522;28;20213;-59
2022/08/19 12:51:15;;;;;;;14.93;13.27;;;25.40;99.90;;;;;;5034013;28;20603;-60
2022/08/19 12:53:42;;;;;;;14.60;13.10;;;25.50;99.90;;;;;;5034445;28;20202;-59
2022/08/19 12:56:10;;;;;;;17.63;13.23;;;25.60;99.90;;;;;;5033803;28;20226;-60
2022/08/19 12:58:37;;;;;;;15.50;13.65;;;25.30;99.90;;;;;;5032901;28;20625;-59
2022/08/19 13:01:10;;;;;;;16.25;13.90;;;24.80;99.90;;;;;;5031871;28;20234;-58